Time;durP1;ratioP1;P1;durP2;ratioP2;P2;SDS_P1;SDS_P2;PMS_P1;PMS_P2;Temp;Humidity;BMP_temperature;BMP_pressure;BME280_temperature;BME280_humidity;BME280_pressure;Samples;Min_cycle;Max_cycle;Signal;HPM_P1;HPM_P2
2023/10/24 00:01:34;;;;;;;5.45;3.20;;;11.60;99.90;;;11.19;100.00;96353.03;5051900;28;20028;-40
2023/10/24 00:04:00;;;;;;;6.40;3.47;;;11.60;99.90;;;11.26;100.00;96355.22;5055164;28;20037;-38
2023/10/24 00:06:26;;;;;;;5.63;2.88;;;11.70;99.90;;;11.30;100.00;96337.44;5055337;28;20025;-38
2023/10/24 00:08:51;;;;;;;4.28;2.58;;;11.70;99.90;;;11.28;100.00;96329.59;5058309;28;20507;-40
2023/10/24 00:11:17;;;;;;;8.00;3.15;;;11.70;99.90;;;11.22;100.00;96324.69;5050892;28;20036;-41
2023/10/24 00:13:43;;;;;;;5.28;3.15;;;11.70;99.90;;;11.21;100.00;96340.59;5046873;28;20050;-38
2023/10/24 00:16:08;;;;;;;5.70;3.35;;;11.60;99.90;;;11.17;100.00;96349.63;5040881;28;20032;-39
2023/10/24 00:18:34;;;;;;;3.63;2.67;;;11.60;99.90;;;11.10;100.00;96351.75;5046429;28;20119;-39
2023/10/24 00:21:00;;;;;;;4.25;3.22;;;11.60;99.90;;;11.07;100.00;96342.22;5058708;28;20048;-40
2023/10/24 00:23:29;;;;;;;4.45;2.67;;;11.50;99.90;;;11.05;100.00;96345.88;5061686;28;20384;-38
2023/10/24 00:25:54;;;;;;;7.50;3.00;;;11.50;99.90;;;11.03;100.00;96351.22;5056496;28;20040;-39
2023/10/24 00:28:20;;;;;;;4.57;3.00;;;11.40;99.90;;;11.04;100.00;96363.50;5058253;28;20029;-39
2023/10/24 00:30:46;;;;;;;4.13;2.88;;;11.40;99.90;;;11.03;100.00;96361.78;5059688;28;20020;-39
2023/10/24 00:33:11;;;;;;;3.92;3.15;;;11.50;99.90;;;10.98;100.00;96353.31;5054899;28;20020;-40
2023/10/24 00:35:37;;;;;;;5.68;3.50;;;11.40;99.90;;;11.03;100.00;96361.78;5056343;28;20044;-40
2023/10/24 00:38:03;;;;;;;4.47;3.20;;;11.40;99.90;;;11.01;100.00;96366.31;5056168;28;20548;-38
2023/10/24 00:40:28;;;;;;;6.93;4.05;;;11.40;99.90;;;11.05;100.00;96372.25;5061599;28;20098;-40
2023/10/24 00:42:54;;;;;;;6.53;3.13;;;11.50;99.90;;;11.05;100.00;96385.44;5058195;28;20032;-38
2023/10/24 00:45:20;;;;;;;10.32;3.90;;;11.50;99.90;;;11.02;100.00;96369.81;5057210;28;20922;-40
2023/10/24 00:47:46;;;;;;;5.43;3.45;;;11.50;99.90;;;11.07;100.00;96367.75;5058180;28;20039;-40
2023/10/24 00:50:13;;;;;;;8.98;3.30;;;11.50;99.90;;;11.10;100.00;96361.47;5057738;28;20032;-41
2023/10/24 00:52:43;;;;;;;7.20;3.50;;;11.50;99.90;;;11.01;100.00;96347.84;5042138;28;20025;-38
2023/10/24 00:55:09;;;;;;;5.35;2.88;;;11.50;99.90;;;11.10;100.00;96366.75;5043666;28;20024;-39
2023/10/24 00:57:35;;;;;;;5.60;4.00;;;11.50;99.90;;;11.09;100.00;96365.91;5057296;28;20120;-39
2023/10/24 01:00:01;;;;;;;5.60;3.33;;;11.50;99.90;;;11.11;100.00;96357.88;5042129;28;20031;-40
2023/10/24 01:02:27;;;;;;;5.40;3.55;;;11.50;99.90;;;11.08;100.00;96358.91;5061030;28;20117;-39
2023/10/24 01:04:57;;;;;;;5.47;3.60;;;11.60;99.90;;;11.14;100.00;96355.06;5062689;28;20444;-39
2023/10/24 01:07:23;;;;;;;5.95;3.63;;;11.60;99.90;;;11.14;100.00;96355.91;5041420;28;20045;-39
2023/10/24 01:09:49;;;;;;;8.05;3.72;;;11.60;99.90;;;11.16;100.00;96355.81;5060527;28;20025;-40
2023/10/24 01:12:14;;;;;;;4.78;3.20;;;11.60;99.90;;;11.17;100.00;96350.47;5060190;28;20029;-41
2023/10/24 01:14:40;;;;;;;5.40;3.53;;;11.60;99.90;;;11.19;100.00;96335.41;5054702;28;20033;-39
2023/10/24 01:17:13;;;;;;;5.90;3.38;;;11.60;99.90;;;11.22;100.00;96343.16;5056021;28;20028;-39
2023/10/24 01:19:39;;;;;;;4.22;3.05;;;11.60;99.90;;;11.26;100.00;96331.47;5062264;28;20024;-39
2023/10/24 01:22:05;;;;;;;5.07;3.38;;;11.70;99.90;;;11.26;100.00;96313.00;5059606;28;20117;-40
2023/10/24 01:24:31;;;;;;;4.68;2.83;;;11.70;99.90;;;11.26;100.00;96310.38;5057538;28;20036;-40
2023/10/24 01:26:57;;;;;;;4.80;3.08;;;11.70;99.90;;;11.33;100.00;96324.06;5063228;28;20071;-40
2023/10/24 01:29:23;;;;;;;5.63;3.13;;;11.80;99.90;;;11.34;100.00;96317.00;5055014;28;20444;-41
2023/10/24 01:31:49;;;;;;;9.13;3.30;;;11.80;99.90;;;11.36;100.00;96312.47;5059048;28;20042;-40
2023/10/24 01:34:15;;;;;;;4.15;3.20;;;11.80;99.90;;;11.36;100.00;96315.09;5057752;28;20449;-39
2023/10/24 01:36:41;;;;;;;6.00;2.90;;;11.80;99.90;;;11.36;100.00;96312.47;5055510;28;20110;-40
2023/10/24 01:39:07;;;;;;;5.93;2.95;;;11.80;99.90;;;11.39;100.00;96320.22;5054970;28;20111;-41
2023/10/24 01:41:34;;;;;;;4.28;2.70;;;11.80;99.90;;;11.39;100.00;96312.31;5060949;28;20466;-39
2023/10/24 01:43:59;;;;;;;3.95;2.58;;;11.80;99.90;;;11.37;100.00;96316.81;5059300;28;20043;-40
2023/10/24 01:46:25;;;;;;;6.20;2.78;;;11.80;99.90;;;11.36;100.00;96312.47;5052201;28;20028;-40
2023/10/24 01:48:51;;;;;;;4.35;2.33;;;11.70;99.90;;;11.32;100.00;96313.59;5058136;28;20143;-40
2023/10/24 01:51:17;;;;;;;4.45;2.92;;;11.70;99.90;;;11.31;100.00;96310.13;5057701;28;20044;-40
2023/10/24 01:53:43;;;;;;;3.78;2.50;;;11.70;99.90;;;11.32;100.00;96311.78;5060358;28;20487;-40
2023/10/24 01:56:13;;;;;;;3.08;2.42;;;11.70;99.90;;;11.32;100.00;96309.16;5056522;28;20074;-40
2023/10/24 01:58:39;;;;;;;4.40;2.20;;;11.70;99.90;;;11.31;100.00;96314.56;5055174;28;20653;-41
2023/10/24 02:01:06;;;;;;;5.43;2.80;;;11.70;99.90;;;11.31;100.00;96314.56;5058309;28;20531;-39
2023/10/24 02:03:32;;;;;;;5.45;2.85;;;11.70;99.90;;;11.26;100.00;96312.16;5063384;28;20036;-40
2023/10/24 02:05:58;;;;;;;3.85;2.53;;;11.70;99.90;;;11.23;100.00;96315.84;5053991;28;20491;-40
2023/10/24 02:08:24;;;;;;;6.68;2.80;;;11.70;99.90;;;11.25;100.00;96318.34;5056715;28;20428;-39
2023/10/24 02:10:50;;;;;;;4.90;2.90;;;11.70;99.90;;;11.23;100.00;96325.53;5057678;28;20032;-39
2023/10/24 02:13:17;;;;;;;3.35;2.50;;;11.60;99.90;;;11.11;100.00;96303.34;5056601;28;20068;-39
2023/10/24 02:15:42;;;;;;;4.53;2.90;;;11.60;99.90;;;11.17;100.00;96318.81;5039243;28;20119;-39
2023/10/24 02:18:08;;;;;;;3.38;2.80;;;11.60;99.90;;;11.17;100.00;96328.53;5057950;28;20522;-40
2023/10/24 02:20:34;;;;;;;5.20;3.00;;;11.60;99.90;;;11.15;100.00;96330.41;5055308;28;20098;-39
2023/10/24 02:22:59;;;;;;;5.70;2.90;;;11.60;99.90;;;11.17;100.00;96331.16;5053423;28;20029;-39
2023/10/24 02:25:25;;;;;;;4.80;2.50;;;11.60;99.90;;;11.14;100.00;96323.41;5052642;28;20060;-39
2023/10/24 02:27:52;;;;;;;4.63;2.55;;;11.60;99.90;;;11.16;100.00;96317.13;5051939;28;20035;-40
2023/10/24 02:30:18;;;;;;;5.45;2.53;;;11.60;99.90;;;11.17;100.00;96316.16;5046508;28;20120;-40
2023/10/24 02:32:44;;;;;;;4.63;3.03;;;11.60;99.90;;;11.17;100.00;96321.44;5055971;28;20025;-39
2023/10/24 02:35:09;;;;;;;5.65;2.70;;;11.60;99.90;;;11.19;100.00;96310.81;5046876;28;20031;-39
2023/10/24 02:37:36;;;;;;;5.47;2.20;;;11.60;99.90;;;11.15;100.00;96309.28;5054047;28;20085;-42
2023/10/24 02:40:02;;;;;;;4.80;2.85;;;11.60;99.90;;;11.19;100.00;96308.16;5053335;28;20037;-39
2023/10/24 02:42:28;;;;;;;7.43;3.15;;;11.60;99.90;;;11.22;100.00;96314.13;5052683;28;20025;-41
2023/10/24 02:44:54;;;;;;;5.43;2.80;;;11.70;99.90;;;11.23;100.00;96320.25;5052929;28;20046;-40
2023/10/24 02:47:19;;;;;;;4.65;2.70;;;11.70;99.90;;;11.29;100.00;96314.63;5049950;28;20047;-40
2023/10/24 02:49:45;;;;;;;4.32;2.95;;;11.70;99.90;;;11.33;100.00;96320.59;5033174;28;20236;-41
2023/10/24 02:52:11;;;;;;;3.80;2.63;;;11.70;99.90;;;11.35;100.00;96311.63;5045501;28;20040;-40
2023/10/24 02:54:37;;;;;;;4.10;2.40;;;11.80;99.90;;;11.33;100.00;96304.75;5051306;28;21037;-39
2023/10/24 02:57:03;;;;;;;3.35;2.42;;;11.80;99.90;;;11.40;100.00;96325.41;5052847;28;20020;-39
2023/10/24 02:59:29;;;;;;;3.22;2.15;;;11.80;99.90;;;11.46;100.00;96329.50;5052445;28;20133;-41
2023/10/24 03:01:54;;;;;;;2.80;2.25;;;11.80;99.90;;;11.48;100.00;96335.53;5029424;28;20329;-39
2023/10/24 03:04:20;;;;;;;7.43;2.60;;;11.90;99.90;;;11.50;100.00;96333.66;5050462;28;20044;-39
2023/10/24 03:06:46;;;;;;;5.35;2.10;;;11.90;99.90;;;11.53;100.00;96344.03;5050055;28;20024;-40
2023/10/24 03:09:11;;;;;;;5.07;2.20;;;11.90;99.90;;;11.52;100.00;96331.78;5053738;28;20113;-40
2023/10/24 03:11:37;;;;;;;3.72;2.25;;;12.00;99.90;;;11.52;100.00;96323.88;5051161;28;20032;-39
2023/10/24 03:14:03;;;;;;;4.10;2.30;;;12.00;99.90;;;11.55;100.00;96321.03;5048373;28;20035;-40
2023/10/24 03:16:28;;;;;;;3.85;2.28;;;12.00;99.90;;;11.57;100.00;96316.50;5048068;28;20164;-39
2023/10/24 03:18:54;;;;;;;4.35;2.22;;;12.00;99.90;;;11.58;100.00;96320.03;5056540;28;20042;-39
2023/10/24 03:21:20;;;;;;;4.00;2.10;;;12.00;99.90;;;11.59;100.00;96319.94;4500685;28;15036654;-40
2023/10/24 03:23:46;;;;;;;6.35;1.90;;;12.00;99.90;;;11.59;100.00;96317.28;5053735;28;20031;-40
2023/10/24 03:26:12;;;;;;;3.38;2.00;;;12.00;99.90;;;11.58;100.00;96326.16;5053643;28;20040;-39
2023/10/24 03:28:37;;;;;;;4.47;2.00;;;12.00;99.90;;;11.56;100.00;96322.75;5051840;28;20047;-39
2023/10/24 03:31:05;;;;;;;3.63;1.83;;;11.90;99.90;;;11.53;100.00;96312.34;5047568;28;22912;-40
2023/10/24 03:33:32;;;;;;;2.75;1.80;;;12.00;99.90;;;11.51;100.00;96310.75;5045153;28;20028;-40
2023/10/24 03:35:58;;;;;;;3.53;2.20;;;11.90;99.90;;;11.48;100.00;96301.22;5051261;28;20032;-40
2023/10/24 03:38:25;;;;;;;2.50;1.90;;;11.90;99.90;;;11.47;100.00;96291.59;5053312;28;20028;-39
2023/10/24 03:40:51;;;;;;;4.18;2.10;;;11.90;99.90;;;11.47;100.00;96283.69;5054287;28;20716;-40
2023/10/24 03:43:17;;;;;;;3.25;2.10;;;11.90;99.90;;;11.50;100.00;96266.81;5053713;28;20039;-39
2023/10/24 03:45:43;;;;;;;6.22;1.95;;;11.90;99.90;;;11.53;100.00;96254.28;5046244;28;20594;-39
2023/10/24 03:48:09;;;;;;;4.60;1.75;;;11.90;99.90;;;11.54;100.00;96252.47;5053950;28;20031;-40
2023/10/24 03:50:39;;;;;;;8.65;2.00;;;11.90;99.90;;;11.59;100.00;96251.28;5049086;28;20041;-39
2023/10/24 03:53:05;;;;;;;5.38;1.88;;;12.00;99.90;;;11.67;100.00;96252.63;5051203;28;20078;-39
2023/10/24 03:55:34;;;;;;;4.15;1.92;;;12.10;99.90;;;11.72;100.00;96251.41;5042941;28;20028;-40
2023/10/24 03:58:00;;;;;;;1.80;1.45;;;12.10;99.90;;;11.77;100.00;96248.47;5051313;28;20035;-39
2023/10/24 04:00:26;;;;;;;4.15;2.00;;;12.20;99.90;;;11.79;100.00;96249.22;5040802;28;20033;-40
2023/10/24 04:02:53;;;;;;;6.65;2.47;;;12.20;99.90;;;11.81;100.00;96244.72;5029492;28;20036;-39
2023/10/24 04:05:20;;;;;;;3.83;2.05;;;12.20;99.90;;;11.77;100.00;96240.53;5035977;28;20036;-39
2023/10/24 04:07:46;;;;;;;3.15;2.08;;;12.20;99.90;;;11.72;100.00;96237.31;5017008;28;20055;-40
2023/10/24 04:10:12;;;;;;;5.97;2.80;;;12.20;99.90;;;11.66;100.00;96254.38;5044255;28;20448;-41
2023/10/24 04:12:38;;;;;;;6.00;2.50;;;12.10;99.90;;;11.62;100.00;96258.16;5028209;28;20031;-41
2023/10/24 04:15:05;;;;;;;5.82;2.55;;;12.10;99.90;;;11.49;100.00;96242.19;5042762;28;20033;-40
2023/10/24 04:17:32;;;;;;;4.32;2.50;;;12.00;99.90;;;11.57;100.00;96260.22;5037291;28;20231;-40
2023/10/24 04:19:58;;;;;;;4.97;2.25;;;12.00;99.90;;;11.53;100.00;96254.28;5049529;28;20124;-39
2023/10/24 04:22:23;;;;;;;3.60;2.30;;;12.00;99.90;;;11.56;100.00;96256.75;5048186;28;20062;-40
2023/10/24 04:24:49;;;;;;;3.38;2.10;;;12.00;99.90;;;11.56;100.00;96251.47;5049182;28;20029;-39
2023/10/24 04:27:15;;;;;;;4.07;2.00;;;12.00;99.90;;;11.55;100.00;96248.91;5046183;28;20068;-39
2023/10/24 04:29:42;;;;;;;2.63;1.60;;;12.00;99.90;;;11.54;100.00;96242.78;5034951;28;20275;-39
2023/10/24 04:32:07;;;;;;;6.00;1.95;;;12.00;99.90;;;11.57;100.00;96250.50;5046773;28;20045;-39
2023/10/24 04:34:33;;;;;;;1.52;1.40;;;12.00;99.90;;;11.62;100.00;96253.72;5044098;28;20158;-40
2023/10/24 04:37:00;;;;;;;2.42;1.60;;;12.00;99.90;;;11.64;100.00;96246.56;5049668;28;20351;-39
2023/10/24 04:39:27;;;;;;;3.70;1.80;;;12.00;99.90;;;11.66;100.00;96246.47;5030741;28;20037;-41
2023/10/24 04:41:53;;;;;;;3.42;1.98;;;12.00;99.90;;;11.66;100.00;96254.38;5042503;28;20046;-41
2023/10/24 04:44:19;;;;;;;3.13;1.45;;;12.10;99.90;;;11.66;100.00;96243.81;5043319;28;20036;-39
2023/10/24 04:46:45;;;;;;;2.72;1.42;;;12.10;99.90;;;11.56;100.00;96235.63;5037521;28;20037;-38
2023/10/24 04:49:12;;;;;;;5.47;2.22;;;12.10;99.90;;;11.67;100.00;96261.38;5046965;28;20032;-39
2023/10/24 04:51:37;;;;;;;2.95;2.17;;;12.10;99.90;;;11.68;100.00;96263.06;5041122;28;20036;-39
2023/10/24 04:54:03;;;;;;;4.90;2.00;;;12.10;99.90;;;11.60;100.00;96247.69;5046313;28;20055;-35
2023/10/24 04:56:29;;;;;;;5.28;1.85;;;12.10;99.90;;;11.67;100.00;96255.25;5035917;28;20033;-38
2023/10/24 04:58:56;;;;;;;4.88;2.13;;;12.10;99.90;;;11.62;100.00;96240.50;5048155;28;20037;-38
2023/10/24 05:01:22;;;;;;;5.93;2.10;;;12.00;99.90;;;11.56;100.00;96240.06;5053613;28;20492;-38
2023/10/24 05:03:47;;;;;;;3.45;1.80;;;12.00;99.90;;;11.59;100.00;96248.63;5052789;28;20134;-37
2023/10/24 05:06:13;;;;;;;5.07;1.95;;;12.00;99.90;;;11.60;100.00;96250.31;5054533;28;20056;-38
2023/10/24 05:08:40;;;;;;;5.38;2.15;;;12.00;99.90;;;11.59;100.00;96251.28;5057520;28;20762;-37
2023/10/24 05:11:05;;;;;;;3.78;2.00;;;12.00;99.90;;;11.57;100.00;96239.09;5055985;28;20043;-38
2023/10/24 05:13:31;;;;;;;2.13;1.55;;;12.00;99.90;;;11.56;100.00;96230.34;5056338;28;20032;-38
2023/10/24 05:15:57;;;;;;;2.72;2.03;;;11.90;99.90;;;11.56;100.00;96234.78;5058559;28;20522;-37
2023/10/24 05:18:23;;;;;;;3.85;1.80;;;12.00;99.90;;;11.54;100.00;96229.59;5057959;28;20108;-39
2023/10/24 05:20:48;;;;;;;2.35;1.50;;;11.90;99.90;;;11.53;100.00;96222.59;5062089;28;20124;-39
2023/10/24 05:23:14;;;;;;;2.40;1.60;;;12.00;99.90;;;11.55;100.00;96214.56;5063873;28;20028;-37
2023/10/24 05:25:42;;;;;;;3.67;1.80;;;11.90;99.90;;;11.45;100.00;96190.53;5051344;28;20221;-39
2023/10/24 05:28:07;;;;;;;1.58;1.40;;;11.90;99.90;;;11.52;100.00;96206.84;5061665;28;20047;-38
2023/10/24 05:30:33;;;;;;;3.13;1.70;;;11.90;99.90;;;11.44;100.00;96192.31;5053948;28;20039;-39
2023/10/24 05:32:59;;;;;;;3.30;1.85;;;11.90;99.90;;;11.49;100.00;96210.53;5063263;28;20037;-37
2023/10/24 05:35:25;;;;;;;4.30;2.20;;;11.90;99.90;;;11.48;100.00;96218.53;5055744;28;20028;-38
2023/10/24 05:37:51;;;;;;;2.75;1.77;;;11.90;99.90;;;11.42;100.00;96204.75;5060539;28;20028;-38
2023/10/24 05:40:16;;;;;;;2.15;1.65;;;11.90;99.90;;;11.45;100.00;96203.72;5058018;28;20033;-37
2023/10/24 05:42:44;;;;;;;3.42;1.73;;;11.90;99.90;;;11.46;100.00;96202.78;5057494;28;20357;-37
2023/10/24 05:45:10;;;;;;;3.42;2.03;;;11.80;99.90;;;11.44;100.00;96194.94;5055594;28;20056;-39
2023/10/24 05:47:35;;;;;;;4.25;1.80;;;11.80;99.90;;;11.44;100.00;96202.84;5055769;28;20052;-39
2023/10/24 05:50:01;;;;;;;2.80;1.85;;;11.80;99.90;;;11.44;100.00;96207.28;5057667;28;20451;-38
2023/10/24 05:52:27;;;;;;;7.07;2.00;;;11.80;99.90;;;11.39;100.00;96186.44;5038719;28;20053;-38
2023/10/24 05:54:53;;;;;;;3.33;2.10;;;11.80;99.90;;;11.41;100.00;96200.44;5054726;28;20108;-38
2023/10/24 05:57:18;;;;;;;3.75;1.90;;;11.80;99.90;;;11.40;100.00;96192.59;5057299;28;20396;-39
2023/10/24 05:59:44;;;;;;;7.32;2.53;;;11.80;99.90;;;11.40;100.00;96200.50;5055693;28;20542;-37
2023/10/24 06:02:10;;;;;;;4.35;2.25;;;11.80;99.90;;;11.38;100.00;96194.47;5043112;28;20036;-37
2023/10/24 06:04:36;;;;;;;3.33;2.28;;;11.80;99.90;;;11.37;100.00;96184.84;5051665;28;20083;-39
2023/10/24 06:07:02;;;;;;;4.25;2.53;;;11.80;99.90;;;11.33;100.00;96188.63;5056286;28;20033;-37
2023/10/24 06:09:27;;;;;;;4.40;2.15;;;11.80;99.90;;;11.36;100.00;96193.69;5058818;28;20044;-37
2023/10/24 06:11:53;;;;;;;5.65;2.30;;;11.70;99.90;;;11.37;100.00;96204.16;5056299;28;20048;-39
2023/10/24 06:14:19;;;;;;;4.72;2.70;;;11.70;99.90;;;11.34;100.00;96199.09;5057449;28;20122;-38
2023/10/24 06:16:45;;;;;;;5.07;2.78;;;11.70;99.90;;;11.33;100.00;96189.47;5053819;28;20029;-38
2023/10/24 06:19:11;;;;;;;4.75;2.80;;;11.70;99.90;;;11.34;100.00;96208.78;5058616;28;20060;-37
2023/10/24 06:21:36;;;;;;;6.78;2.75;;;11.70;99.90;;;11.34;100.00;96209.66;5039105;28;20036;-38
2023/10/24 06:24:02;;;;;;;6.95;2.80;;;11.80;99.90;;;11.33;100.00;96215.84;5059421;28;20040;-38
2023/10/24 06:26:28;;;;;;;4.90;3.22;;;11.70;99.90;;;11.33;100.00;96209.72;5057084;28;20071;-38
2023/10/24 06:28:54;;;;;;;8.38;3.40;;;11.70;99.90;;;11.31;100.00;96215.09;5055733;28;20496;-38
2023/10/24 06:31:20;;;;;;;7.18;3.05;;;11.70;99.90;;;11.31;100.00;96212.47;5060743;28;20028;-39
2023/10/24 06:33:46;;;;;;;5.85;3.10;;;11.70;99.90;;;11.35;100.00;96221.88;5055837;28;20206;-40
2023/10/24 06:36:12;;;;;;;4.95;3.05;;;11.80;99.90;;;11.38;100.00;96219.06;5058252;28;20036;-37
2023/10/24 06:38:37;;;;;;;4.53;2.83;;;11.80;99.90;;;11.39;100.00;96215.47;5055416;28;20048;-39
2023/10/24 06:41:08;;;;;;;5.40;3.45;;;11.80;99.90;;;11.38;100.00;96216.44;5056399;28;20679;-36
2023/10/24 06:43:33;;;;;;;8.27;3.75;;;11.80;99.90;;;11.38;100.00;96210.31;5055277;28;20028;-39
2023/10/24 06:46:02;;;;;;;8.40;3.72;;;11.80;99.90;;;11.40;100.00;96204.00;5057941;28;20461;-39
2023/10/24 06:48:27;;;;;;;7.70;3.92;;;11.80;99.90;;;11.41;100.00;96205.69;5056822;28;20028;-41
2023/10/24 06:50:53;;;;;;;6.18;3.28;;;11.80;99.90;;;11.43;100.00;96201.19;5057482;28;20024;-39
2023/10/24 06:53:19;;;;;;;5.20;3.03;;;11.80;99.90;;;11.43;100.00;96201.19;5057187;28;20385;-39
2023/10/24 06:55:44;;;;;;;6.50;3.58;;;11.80;99.90;;;11.45;100.00;96203.72;5053635;28;20024;-41
2023/10/24 06:58:10;;;;;;;4.72;2.90;;;11.90;99.90;;;11.44;100.00;96197.56;5061061;28;20026;-40
2023/10/24 07:00:36;;;;;;;5.88;3.45;;;11.90;99.90;;;11.46;100.00;96206.25;5050531;28;20068;-40
2023/10/24 07:03:02;;;;;;;6.68;3.17;;;11.80;99.90;;;11.45;100.00;96211.66;5063671;28;20040;-36
2023/10/24 07:05:28;;;;;;;7.28;3.80;;;11.90;99.90;;;11.45;100.00;96215.13;5057865;28;20032;-40
2023/10/24 07:07:54;;;;;;;6.50;3.17;;;11.90;99.90;;;11.44;100.00;96221.34;5065104;28;20024;-37
2023/10/24 07:10:20;;;;;;;7.68;3.33;;;11.80;99.90;;;11.40;100.00;96203.16;5066181;28;20036;-37
2023/10/24 07:12:46;;;;;;;6.35;3.33;;;11.90;99.90;;;11.47;100.00;96212.41;5054484;28;20402;-39
2023/10/24 07:15:12;;;;;;;8.82;3.72;;;11.80;99.90;;;11.43;100.00;96205.59;5040827;28;20032;-37
2023/10/24 07:17:38;;;;;;;8.23;3.50;;;11.90;99.90;;;11.46;100.00;96222.09;5054740;28;20025;-38
2023/10/24 07:20:04;;;;;;;5.50;3.47;;;11.90;99.90;;;11.43;100.00;96216.16;5061535;28;20106;-38
2023/10/24 07:22:30;;;;;;;8.95;3.20;;;11.80;99.90;;;11.47;100.00;96225.59;5041466;28;20110;-39
2023/10/24 07:24:56;;;;;;;6.32;3.40;;;11.90;99.90;;;11.47;100.00;96212.41;5057999;28;20532;-37
2023/10/24 07:27:22;;;;;;;6.00;3.47;;;11.80;99.90;;;11.49;100.00;96217.59;5064111;28;20032;-38
2023/10/24 07:29:47;;;;;;;4.93;2.97;;;11.90;99.90;;;11.51;100.00;96219.19;5056420;28;20095;-38
2023/10/24 07:32:14;;;;;;;6.50;2.83;;;11.90;99.90;;;11.51;100.00;96221.00;5060624;28;20439;-37
2023/10/24 07:34:41;;;;;;;7.43;3.28;;;12.00;99.90;;;11.53;100.00;96233.16;5058748;28;20425;-37
2023/10/24 07:37:08;;;;;;;7.55;3.42;;;11.90;99.90;;;11.52;100.00;96228.81;5057735;28;20464;-39
2023/10/24 07:39:37;;;;;;;9.18;3.35;;;12.00;99.90;;;11.52;100.00;96230.59;5058025;28;20421;-37
2023/10/24 07:42:03;;;;;;;6.70;2.70;;;11.90;99.90;;;11.54;100.00;96229.59;5059517;28;20034;-39
2023/10/24 07:44:29;;;;;;;6.35;2.70;;;11.90;99.90;;;11.54;100.00;96220.78;5054550;28;20043;-38
2023/10/24 07:46:55;;;;;;;5.07;2.80;;;11.90;99.90;;;11.55;100.00;96230.41;5050334;28;20039;-38
2023/10/24 07:49:21;;;;;;;4.55;2.63;;;11.90;99.90;;;11.54;100.00;96219.03;5049409;28;20037;-40
2023/10/24 07:51:46;;;;;;;5.18;2.85;;;12.00;99.90;;;11.55;100.00;96217.22;5056832;28;20028;-39
2023/10/24 07:54:12;;;;;;;4.85;2.67;;;12.00;99.90;;;11.55;100.00;96233.91;5062916;28;20028;-40
2023/10/24 07:56:39;;;;;;;6.35;2.90;;;11.90;99.90;;;11.55;100.00;96220.69;5059006;28;20025;-38
2023/10/24 07:59:05;;;;;;;6.53;2.88;;;12.00;99.90;;;11.59;100.00;96232.81;5034895;28;20531;-37
2023/10/24 08:01:31;;;;;;;5.65;2.30;;;12.00;99.90;;;11.64;100.00;96243.91;5051357;28;20094;-38
2023/10/24 08:03:57;;;;;;;3.65;2.38;;;12.00;99.90;;;11.65;100.00;96242.97;5054535;28;20199;-40
2023/10/24 08:06:23;;;;;;;12.50;3.60;;;12.10;99.90;;;11.61;100.00;96228.28;5054707;28;20074;-39
2023/10/24 08:08:49;;;;;;;4.10;2.78;;;12.00;99.90;;;11.58;100.00;96231.09;5052508;28;20123;-38
2023/10/24 08:11:14;;;;;;;5.97;3.03;;;12.00;99.90;;;11.47;100.00;96215.03;5053473;28;20017;-38
2023/10/24 08:13:40;;;;;;;5.72;2.95;;;12.00;99.90;;;11.51;100.00;96227.13;5049929;28;20423;-37
2023/10/24 08:16:07;;;;;;;6.43;3.33;;;11.90;99.90;;;11.49;100.00;96230.78;5046606;28;20299;-37
2023/10/24 08:18:34;;;;;;;4.93;3.15;;;11.90;99.90;;;11.38;100.00;96220.88;5041985;28;20032;-38
2023/10/24 08:21:00;;;;;;;5.00;2.92;;;11.90;99.90;;;11.38;100.00;96232.28;5053343;28;20434;-38
2023/10/24 08:23:28;;;;;;;5.75;2.80;;;11.80;99.90;;;11.35;100.00;96231.59;5055793;28;20037;-37
2023/10/24 08:25:54;;;;;;;7.28;3.08;;;11.80;99.90;;;11.32;100.00;96229.97;5041521;28;20289;-38
2023/10/24 08:28:20;;;;;;;5.68;3.22;;;11.70;99.90;;;11.30;100.00;96228.38;5037558;28;20029;-39
2023/10/24 08:30:46;;;;;;;5.68;3.00;;;11.70;99.90;;;11.28;100.00;96221.38;5049837;28;20032;-37
2023/10/24 08:33:11;;;;;;;7.75;2.92;;;11.70;99.90;;;11.26;100.00;96214.50;5050000;28;20048;-37
2023/10/24 08:35:37;;;;;;;9.32;3.60;;;11.70;99.90;;;11.20;100.00;96210.44;5054569;28;20036;-38
2023/10/24 08:38:05;;;;;;;6.22;2.90;;;11.70;99.90;;;11.30;100.00;96212.53;5044352;28;20040;-39
2023/10/24 08:40:31;;;;;;;4.30;2.85;;;11.70;99.90;;;11.33;100.00;96228.22;5046426;28;20677;-37
2023/10/24 08:42:57;;;;;;;4.80;3.30;;;11.70;99.90;;;11.26;100.00;96228.53;5040376;28;20292;-38
2023/10/24 08:45:23;;;;;;;6.05;3.40;;;11.70;99.90;;;11.28;100.00;96231.09;5055619;28;20040;-38
2023/10/24 08:47:49;;;;;;;4.72;3.45;;;11.70;99.90;;;11.22;100.00;96229.66;5049381;28;20036;-38
2023/10/24 08:50:15;;;;;;;4.38;3.40;;;11.70;99.90;;;11.22;100.00;96248.16;5039008;28;20056;-38
2023/10/24 08:52:44;;;;;;;5.50;3.40;;;11.70;99.90;;;11.24;100.00;96254.19;5028623;28;20058;-37
2023/10/24 08:55:12;;;;;;;6.25;3.22;;;11.70;99.90;;;11.31;100.00;96264.41;5059520;28;20551;-37
2023/10/24 08:57:41;;;;;;;4.90;3.42;;;11.70;99.90;;;11.30;100.00;96245.06;5010688;28;20397;-38
2023/10/24 09:00:13;;;;;;;5.20;3.50;;;11.70;99.90;;;11.39;100.00;96251.59;5049630;28;20036;-38
2023/10/24 09:02:41;;;;;;;5.57;3.30;;;11.80;99.90;;;11.43;100.00;96250.47;5041218;28;20043;-37
2023/10/24 09:05:15;;;;;;;7.63;3.90;;;11.80;99.90;;;11.43;100.00;96246.06;5057809;28;20094;-38
2023/10/24 09:07:41;;;;;;;6.63;3.55;;;11.90;99.90;;;11.47;100.00;96246.72;5049023;28;20496;-39
2023/10/24 09:10:08;;;;;;;6.07;3.83;;;11.90;99.90;;;11.49;100.00;96255.41;5059608;28;20543;-38
2023/10/24 09:12:34;;;;;;;7.35;3.85;;;11.90;99.90;;;11.55;100.00;96262.94;5057251;28;20037;-38
2023/10/24 09:15:01;;;;;;;8.07;4.40;;;11.90;99.90;;;11.58;100.00;96261.94;5055400;28;20052;-39
2023/10/24 09:17:30;;;;;;;7.22;4.18;;;12.00;99.90;;;11.54;100.00;96240.13;5060296;28;20025;-38
2023/10/24 09:19:56;;;;;;;7.50;4.63;;;12.00;99.90;;;11.69;100.00;96259.50;5061932;28;20043;-39
2023/10/24 09:22:23;;;;;;;8.43;4.28;;;12.00;99.90;;;11.75;100.00;96253.00;5068316;28;20029;-38
2023/10/24 09:24:50;;;;;;;8.00;4.65;;;12.10;99.90;;;11.79;100.00;96238.66;5063378;28;20036;-38
2023/10/24 09:27:17;;;;;;;7.10;4.20;;;12.20;99.90;;;11.86;100.00;96245.25;5061227;28;20476;-40
2023/10/24 09:29:43;;;;;;;7.93;4.63;;;12.20;99.90;;;11.92;100.00;96244.09;5058045;28;20051;-39
2023/10/24 09:32:17;;;;;;;10.48;4.88;;;12.20;99.90;;;11.93;100.00;96245.78;5064143;28;20032;-38
2023/10/24 09:34:44;;;;;;;10.63;5.18;;;12.30;99.90;;;11.94;100.00;96248.34;5052567;28;20219;-39
2023/10/24 09:37:11;;;;;;;11.52;4.90;;;12.30;99.90;;;11.95;100.00;96238.59;5046788;28;20175;-38
2023/10/24 09:39:59;;;;;;;9.57;4.95;;;12.30;99.90;;;12.06;100.00;96257.31;5054336;28;20028;-39
2023/10/24 09:42:31;;;;;;;6.53;4.47;;;12.40;99.90;;;12.13;100.00;96253.34;5059712;28;20029;-39
2023/10/24 09:45:02;;;;;;;7.90;4.85;;;12.50;99.90;;;12.18;100.00;96253.06;5051914;28;20028;-38
2023/10/24 09:47:29;;;;;;;9.30;4.50;;;12.50;99.90;;;12.19;100.00;96241.56;5061741;28;20572;-38
2023/10/24 09:49:57;;;;;;;8.88;4.93;;;12.60;99.90;;;12.27;100.00;96255.13;5053760;28;20040;-38
2023/10/24 09:52:25;;;;;;;8.02;4.88;;;12.60;99.90;;;12.28;100.00;96254.19;5059528;28;20292;-38
2023/10/24 09:54:51;;;;;;;7.18;4.50;;;12.60;99.90;;;12.28;100.00;96258.63;5058386;28;20036;-38
2023/10/24 09:57:19;;;;;;;8.60;4.70;;;12.60;99.90;;;12.25;100.00;96238.53;5058421;28;20020;-38
2023/10/24 09:59:54;;;;;;;10.07;5.35;;;12.70;99.90;;;12.32;100.00;96255.69;5059915;28;20579;-38
2023/10/24 10:02:23;;;;;;;11.15;6.03;;;12.70;99.90;;;12.22;100.00;96236.94;5062476;28;20024;-39
2023/10/24 10:04:50;;;;;;;8.07;5.30;;;12.70;99.90;;;12.31;100.00;96243.44;5062072;28;20047;-38
2023/10/24 10:07:17;;;;;;;8.13;5.65;;;12.70;99.90;;;12.31;100.00;96235.50;5055434;28;20091;-39
2023/10/24 10:09:46;;;;;;;7.80;5.22;;;12.70;99.90;;;12.35;100.00;96236.16;5057565;28;20039;-39